Gasburg, Virginia
Current Conditions -  °F | °C
As of 9:35 PM on Tuesday 21 Oct 2014 (Local Time) from KAVC Reporting Station
Overcast Overcast  
Wind Chill: 61°   Ceiling: 7500
Heat Index: 61°   Visibility: 10mi
Dew Point: 48°   Wind: 0mph
Humidity: 63%   Direction: NA
Pressure: 29.96"   Gusts: NA
Location:  36.58°N, 77.88°W
Report Text: KAVC 220135Z AUTO 00000KT 10SM BKN075 BKN095 OVC110 16/09 A2996 RMK AO2
Loading
Personal Weather Stations






























Interactive Weather Map
Tropical Storm Tracking
New forecast layout! Learn more

10-Day Weather Forecast

Advertisements
Track Severe Weather on mobile